Flight Track Log - Related Links

Times and Time Zones

All times are in EDT time to prevent confusion due to time zone crossing. See the SKW4453 flight status page for this flight to view local times or setup timezone preferences in your user account.

Time Position Orientation Groundspeed Altitude Reporting Facility
EDT Latitude Longitude Course Direction KTS MPH feet Rate Location/Type
Mon 10:02:12 PM 37.7500 -122.2833 122° Southeast 195 224 2,200  Level Northern Cal TRACON
Mon 10:03:12 PM 37.7833 -122.3333 310° West 237 273 5,100 2,450 Climbing Northern Cal TRACON
Mon 10:04:00 PM 37.4846 -122.4654 218° Southwest  Level FlightAware Approximate
Mon 10:04:12 PM 37.7667 -122.4000 252° West 266 306 7,100  Level Northern Cal TRACON
Mon 10:05:00 PM 37.4152 -122.4239 149° Southeast  Level FlightAware Approximate
Mon 10:05:12 PM 37.6833 -122.4333 198° South 293 337 10,200  Level Northern Cal TRACON
Mon 10:06:00 PM 37.3478 -122.3746 150° Southeast  Level FlightAware Approximate
Mon 10:06:12 PM 37.6000 -122.4500 189° South 319 367 12,700  Level Northern Cal TRACON
Mon 10:06:39 PM 37.5636 -122.4447 173° South 319 367 13,600 2,250 Climbing Oakland Center
Mon 10:07:00 PM 37.2634 -122.3101 122° Southeast  Level FlightAware Approximate
Mon 10:07:40 PM 37.4897 -122.3586 137° Southeast 366 421 16,000  Level Oakland Center
Mon 10:08:41 PM 37.4167 -122.2619 134° Southeast 380 437 17,900 1,918 Climbing Oakland Center
Mon 10:09:42 PM 37.3389 -122.1581 133° Southeast 403 464 19,900 1,805 Climbing Oakland Center
Mon 10:10:44 PM 37.2581 -122.0522 134° Southeast 419 482 21,600 1,854 Climbing Oakland Center
Mon 10:11:45 PM 37.1747 -121.9408 133° Southeast 436 502 23,700 1,869 Climbing Oakland Center
Mon 10:12:46 PM 37.0897 -121.8278 133° Southeast 444 511 25,400 1,574 Climbing Oakland Center
Mon 10:13:47 PM 37.0011 -121.7131 134° Southeast 456 525 26,900 1,525 Climbing Oakland Center
Mon 10:14:48 PM 36.9117 -121.5983 134° Southeast 460 529 28,500 1,512 Climbing Oakland Center
Mon 10:15:50 PM 36.8167 -121.4719 133° Southeast 469 540 30,000 1,377 Climbing Oakland Center
Mon 10:16:50 PM 36.7244 -121.3525 134° Southeast 476 548 31,300 1,289 Climbing Oakland Center
Mon 10:17:51 PM 36.6306 -121.2308 134° Southeast 484 557 32,600 1,377 Climbing Oakland Center
Mon 10:18:52 PM 36.5381 -121.1100 134° Southeast 482 555 34,100 1,122 Climbing Oakland Center
Mon 10:19:54 PM 36.4456 -120.9911 134° Southeast 480 552 34,900 439 Climbing Oakland Center
Mon 10:20:55 PM 36.3322 -120.8447 134° Southeast 489 563 35,000 49 Climbing Oakland Center
Mon 10:21:56 PM 36.2367 -120.7236 134° Southeast 491 565 35,000  Level Oakland Center
Mon 10:22:57 PM 36.1408 -120.6022 134° Southeast 492 566 35,000  Level Oakland Center
Mon 10:23:58 PM 36.0444 -120.4797 134° Southeast 494 568 35,000  Level Oakland Center
Mon 10:24:59 PM 35.9506 -120.3592 134° Southeast 488 562 35,000  Level Oakland Center
Mon 10:26:00 PM 35.8542 -120.2392 135° Southeast 488 562 35,000 -49 Level Oakland Center
Mon 10:27:01 PM 35.7589 -120.1189 134° Southeast 488 562 34,900  Descending Oakland Center
Mon 10:28:02 PM 35.6625 -119.9986 135° Southeast 488 562 35,000 73 Climbing Oakland Center
Mon 10:28:23 PM 35.6211 -119.9550 139° Southeast 487 560 35,000  Level Los Angeles Center
Mon 10:29:24 PM 35.5100 -119.8608 145° Southeast 482 555 35,000  Level Los Angeles Center
Mon 10:30:04 PM 35.4433 -119.8025 145° Southeast 483 556 35,000  Level Oakland Center
Mon 10:31:05 PM 35.3333 -119.7078 145° Southeast 482 555 35,000  Level Oakland Center
Mon 10:31:28 PM 35.2894 -119.6697 145° Southeast 482 555 35,000  Level Los Angeles Center
Mon 10:32:29 PM 35.1789 -119.5758 145° Southeast 482 555 35,000 -1,122 Level Los Angeles Center
Mon 10:33:31 PM 35.0683 -119.4806 145° Southeast 485 558 32,700 -2,613 Descending Los Angeles Center
Mon 10:34:33 PM 34.9567 -119.3858 145° Southeast 487 560 29,600 -2,952 Descending Los Angeles Center
Mon 10:35:35 PM 34.8481 -119.2933 145° Southeast 480 552 26,600 -3,220 Descending Los Angeles Center
Mon 10:36:36 PM 34.7189 -119.1828 145° Southeast 475 547 23,000 -3,024 Descending Los Angeles Center
Mon 10:37:38 PM 34.6206 -119.1031 146° Southeast 485 558 20,400 -2,855 Descending Los Angeles Center
Mon 10:38:40 PM 34.4947 -118.9975 145° Southeast 451 519 17,100 -2,613 Descending Los Angeles Center
Mon 10:39:42 PM 34.3994 -118.9164 145° Southeast 416 479 15,000 -1,707 Descending Los Angeles Center
Mon 10:40:43 PM 34.3094 -118.8644 155° Southeast 357 411 13,600 -1,171 Descending Los Angeles Center
Mon 10:41:45 PM 34.2242 -118.8328 163° South 320 368 12,600 -774 Descending Los Angeles Center
Mon 10:42:47 PM 34.1400 -118.8022 163° South 316 364 12,000 -677 Descending Los Angeles Center
Mon 10:43:49 PM 34.0575 -118.7686 161° South 287 330 11,200 -927 Descending Los Angeles Center
Mon 10:44:50 PM 34.0300 -118.6694 108° East 300 345 10,100 -732 Descending Los Angeles Center
Mon 10:45:52 PM 34.0228 -118.5844 96° East 254 292 9,700 -677 Descending Los Angeles Center
Mon 10:46:54 PM 34.0158 -118.5086 96° East 229 264 8,700 -976 Descending Los Angeles Center
Mon 10:47:55 PM 34.0153 -118.4333 90° East 211 243 7,700 -1,171 Descending Los Angeles Center
Mon 10:48:57 PM 34.0203 -118.3606 85° East 214 246 6,300 -1,403 Descending Los Angeles Center
Mon 10:49:59 PM 34.0269 -118.2908 83° East 212 244 4,800 -1,113 Descending Los Angeles Center
Mon 10:51:01 PM 34.0294 -118.2231 87° East 205 236 4,000 -732 Descending Los Angeles Center
Mon 10:52:02 PM 34.0292 -118.1539 90° East 206 237 3,300 -488 Descending Los Angeles Center
Mon 10:53:04 PM 34.0181 -118.0956 103° East 203 234 3,000 -98 Descending Los Angeles Center
Mon 10:54:05 PM 33.9833 -118.1500 232° Southwest 192 221 3,100  Climbing Southern California TRACON
Mon 10:55:05 PM 33.9667 -118.2000 248° West 191 220 3,000 -387 Descending Southern California TRACON
Mon 10:56:09 PM 33.9667 -118.2694 270° West 189 217 2,300 -656 Descending Los Angeles Center

Login

Don't have an account? Register now (free) for customized features, flight alerts, and more!